createdAt,value
2018-04-12T00:02:05.568Z,70.31
2018-04-12T00:04:33.136Z,70.84
2018-04-12T00:07:00.757Z,71.45
2018-04-12T00:09:28.383Z,71.90
2018-04-12T00:11:56.014Z,72.21
2018-04-12T00:14:23.594Z,72.69
2018-04-12T00:16:51.161Z,72.85
2018-04-12T00:19:18.777Z,73.21
2018-04-12T00:21:46.428Z,73.60
2018-04-12T00:24:13.997Z,73.85
2018-04-12T00:26:41.584Z,74.27
2018-04-12T00:29:09.225Z,74.47
2018-04-12T00:31:36.865Z,74.58
2018-04-12T00:34:04.457Z,74.74
2018-04-12T00:36:32.052Z,74.94
2018-04-12T00:38:59.617Z,75.16
2018-04-12T00:41:27.241Z,75.27
2018-04-12T00:43:54.810Z,75.24
2018-04-12T00:46:22.371Z,75.29
2018-04-12T00:48:49.949Z,75.19
2018-04-12T00:51:17.516Z,75.50
2018-04-12T00:53:56.961Z,75.57
2018-04-12T00:56:24.553Z,75.71
2018-04-12T00:58:52.120Z,75.85
2018-04-12T01:01:19.685Z,75.81
2018-04-12T01:03:47.297Z,76.07
2018-04-12T01:06:14.860Z,76.15
2018-04-12T01:08:42.420Z,76.17
2018-04-12T01:11:09.997Z,76.14
2018-04-12T01:13:37.562Z,76.06
2018-04-12T01:16:05.192Z,76.35
2018-04-12T01:18:32.754Z,76.51
2018-04-12T01:21:00.401Z,76.65
2018-04-12T01:23:28.028Z,76.57
2018-04-12T01:25:55.630Z,76.45
2018-04-12T01:28:23.255Z,76.32
2018-04-12T01:30:50.808Z,76.84
2018-04-12T01:33:18.378Z,76.96
2018-04-12T01:35:45.967Z,77.14
2018-04-12T01:38:13.551Z,77.13
2018-04-12T01:40:41.111Z,77.30
2018-04-12T01:43:08.680Z,77.37
2018-04-12T01:45:36.247Z,77.43
2018-04-12T01:48:03.872Z,77.57
2018-04-12T01:50:31.501Z,77.79
2018-04-12T01:52:59.062Z,78.08
2018-04-12T01:55:26.637Z,78.82
2018-04-12T01:57:54.182Z,78.66
2018-04-12T02:00:21.753Z,78.60
2018-04-12T02:02:49.392Z,78.45
2018-04-12T02:05:16.960Z,78.60
2018-04-12T02:07:44.587Z,78.83
2018-04-12T02:10:12.257Z,78.73
2018-04-12T02:12:39.897Z,78.99
2018-04-12T02:15:07.456Z,79.43
2018-04-12T02:17:35.029Z,79.96
2018-04-12T02:20:02.589Z,80.50
2018-04-12T02:22:30.181Z,80.87
2018-04-12T02:24:57.779Z,81.16
2018-04-12T02:27:25.418Z,81.29
2018-04-12T02:29:53.062Z,81.40
2018-04-12T02:32:20.745Z,81.57
2018-04-12T02:34:48.313Z,81.74
2018-04-12T02:37:15.883Z,82.00
2018-04-12T02:39:43.514Z,82.12
2018-04-12T02:42:11.144Z,82.36
2018-04-12T02:44:38.712Z,82.64
2018-04-12T02:47:06.291Z,82.93
2018-04-12T02:49:33.916Z,83.13
2018-04-12T02:52:01.533Z,83.09
2018-04-12T02:54:29.104Z,83.55
2018-04-12T02:56:56.690Z,83.32
2018-04-12T02:59:24.256Z,83.27
2018-04-12T03:01:51.866Z,83.32
2018-04-12T03:04:19.492Z,83.36
2018-04-12T03:06:47.167Z,83.30
2018-04-12T03:09:14.740Z,83.29
2018-04-12T03:11:42.325Z,83.34
2018-04-12T03:14:09.947Z,83.45
2018-04-12T03:16:37.507Z,83.81
2018-04-12T03:19:05.098Z,83.95
2018-04-12T03:21:32.754Z,84.05
2018-04-12T03:24:00.324Z,84.08
2018-04-12T03:26:27.959Z,84.15
2018-04-12T03:28:55.593Z,84.30
2018-04-12T03:31:23.166Z,84.36
2018-04-12T03:33:50.803Z,84.63
2018-04-12T03:36:18.380Z,84.65
2018-04-12T03:38:45.945Z,84.72
2018-04-12T03:41:13.532Z,84.81
2018-04-12T03:43:41.109Z,85.17
2018-04-12T03:46:08.657Z,85.09
2018-04-12T03:48:36.228Z,84.95
2018-04-12T03:51:03.884Z,84.83
2018-04-12T03:53:31.452Z,84.83
2018-04-12T03:55:59.017Z,84.18
2018-04-12T03:58:26.751Z,83.72
2018-04-12T04:00:54.313Z,83.18
2018-04-12T04:03:21.881Z,82.58
2018-04-12T04:05:49.449Z,82.11
2018-04-12T04:08:17.016Z,81.77
2018-04-12T04:10:44.576Z,81.36
2018-04-12T04:13:12.232Z,81.12
2018-04-12T04:18:53.453Z,80.47
2018-04-12T04:21:21.016Z,80.03
2018-04-12T04:23:48.640Z,79.73
2018-04-12T04:26:16.270Z,79.28
2018-04-12T04:28:43.907Z,78.85
2018-04-12T04:31:11.481Z,78.27
2018-04-12T04:33:39.043Z,77.81
2018-04-12T04:36:06.629Z,76.50
2018-04-12T04:38:34.267Z,74.43
2018-04-12T04:41:01.911Z,71.20
2018-04-12T04:43:29.533Z,67.25
2018-04-12T04:45:57.159Z,64.01
2018-04-12T04:48:24.731Z,60.94
2018-04-12T04:50:52.357Z,58.77
2018-04-12T04:53:20.005Z,56.77
2018-04-12T04:55:47.573Z,55.19
2018-04-12T04:58:15.145Z,54.80
2018-04-12T05:00:42.773Z,52.48
2018-04-12T05:03:10.394Z,51.06
2018-04-12T05:05:38.001Z,50.34
2018-04-12T05:08:05.659Z,49.25
2018-04-12T05:10:33.296Z,49.39
2018-04-12T05:13:00.862Z,47.39
2018-04-12T05:15:28.549Z,46.13
2018-04-12T05:17:56.175Z,44.56
2018-04-12T05:20:23.752Z,43.35
2018-04-12T05:22:51.374Z,41.78
2018-04-12T05:25:18.949Z,41.78
2018-04-12T05:27:46.591Z,41.75
2018-04-12T05:30:14.254Z,41.81
2018-04-12T05:32:41.884Z,41.83
2018-04-12T05:35:09.456Z,40.16
2018-04-12T05:37:37.028Z,39.06
2018-04-12T05:40:04.599Z,38.46
2018-04-12T05:42:32.172Z,37.65
2018-04-12T05:44:59.738Z,37.16
2018-04-12T05:47:27.380Z,37.57
2018-04-12T05:49:55.053Z,37.83
2018-04-12T05:52:22.760Z,37.38
2018-04-12T05:54:50.336Z,37.60
2018-04-12T05:57:17.905Z,37.43
2018-04-12T05:59:45.476Z,38.59
2018-04-12T06:02:13.038Z,38.63
2018-04-12T06:04:40.608Z,40.94
2018-04-12T06:07:08.233Z,45.14
2018-04-12T06:09:35.866Z,45.48
2018-04-12T06:12:03.502Z,46.91
2018-04-12T06:14:31.069Z,47.35
2018-04-12T06:16:58.647Z,49.28
2018-04-12T06:19:26.212Z,50.05
2018-04-12T06:21:53.794Z,50.35
2018-04-12T06:24:21.357Z,50.79
2018-04-12T06:26:48.984Z,50.81
2018-04-12T06:29:16.548Z,49.76
2018-04-12T06:31:44.108Z,47.68
2018-04-12T06:34:11.666Z,47.58
2018-04-12T06:36:39.231Z,46.98
2018-04-12T06:39:06.880Z,46.29
2018-04-12T06:41:34.446Z,45.81
2018-04-12T06:44:02.027Z,46.32
2018-04-12T06:46:29.601Z,45.59
2018-04-12T06:48:57.308Z,44.44
2018-04-12T06:51:24.952Z,44.50
2018-04-12T06:53:52.516Z,43.10
2018-04-12T06:56:20.088Z,44.52
2018-04-12T06:58:47.667Z,45.91
2018-04-12T07:01:15.309Z,47.40
2018-04-12T07:03:42.943Z,48.74
2018-04-12T07:06:10.560Z,48.83
2018-04-12T07:08:38.139Z,47.31
2018-04-12T07:11:05.701Z,46.59
2018-04-12T07:13:33.299Z,46.62
2018-04-12T07:16:00.861Z,46.18
2018-04-12T07:18:28.441Z,47.56
2018-04-12T07:20:56.003Z,45.75
2018-04-12T07:23:23.639Z,45.14
2018-04-12T07:25:51.224Z,45.87
2018-04-12T07:28:18.785Z,45.61
2018-04-12T07:30:46.409Z,44.86
2018-04-12T07:33:13.973Z,44.61
2018-04-12T07:35:41.610Z,47.39
2018-04-12T07:38:09.221Z,47.44
2018-04-12T07:40:36.812Z,46.56
2018-04-12T07:43:04.442Z,45.41
2018-04-12T07:45:32.127Z,45.50
2018-04-12T07:47:59.720Z,44.47
2018-04-12T07:50:27.367Z,45.87
2018-04-12T07:52:55.005Z,47.37
2018-04-12T07:55:22.561Z,47.83
2018-04-12T07:57:50.169Z,46.73
2018-04-12T08:00:17.728Z,47.75
2018-04-12T08:02:45.354Z,47.14
2018-04-12T08:05:12.958Z,46.22
2018-04-12T08:07:40.577Z,46.70
2018-04-12T08:10:08.137Z,47.82
2018-04-12T08:12:35.785Z,47.29
2018-04-12T08:15:03.458Z,46.54
2018-04-12T08:17:31.016Z,47.98
2018-04-12T08:19:58.619Z,48.72
2018-04-12T08:22:26.247Z,47.82
2018-04-12T08:24:53.844Z,47.04
2018-04-12T08:27:21.474Z,49.76
2018-04-12T08:29:49.149Z,48.91
2018-04-12T08:32:16.779Z,48.39
2018-04-12T08:34:44.336Z,48.02
2018-04-12T08:37:11.952Z,48.49
2018-04-12T08:39:39.519Z,48.98
2018-04-12T08:42:07.090Z,48.98
2018-04-12T08:44:34.657Z,49.43
2018-04-12T08:47:02.291Z,49.49
2018-04-12T08:49:29.972Z,49.35
2018-04-12T08:51:57.671Z,49.67
2018-04-12T08:54:25.240Z,48.54
2018-04-12T08:56:52.805Z,47.80
2018-04-12T08:59:20.376Z,48.53
2018-04-12T09:01:47.944Z,49.15
2018-04-12T09:04:15.512Z,48.91
2018-04-12T09:06:43.127Z,48.17
2018-04-12T09:09:10.765Z,48.38
2018-04-12T09:11:38.348Z,46.90
2018-04-12T09:14:06.029Z,46.33
2018-04-12T09:16:33.660Z,46.55
2018-04-12T09:19:01.217Z,46.69
2018-04-12T09:21:28.795Z,46.53
2018-04-12T09:23:56.368Z,46.30
2018-04-12T09:26:23.954Z,45.22
2018-04-12T09:28:51.524Z,46.47
2018-04-12T09:31:19.223Z,46.34
2018-04-12T09:33:46.785Z,45.74
2018-04-12T09:36:14.402Z,45.74
2018-04-12T09:38:42.033Z,45.39
2018-04-12T09:41:09.597Z,45.27
2018-04-12T09:43:37.166Z,44.94
2018-04-12T09:46:04.785Z,45.30
2018-04-12T09:48:32.470Z,45.08
2018-04-12T09:51:00.039Z,45.11
2018-04-12T09:53:27.605Z,44.42
2018-04-12T09:55:55.270Z,44.77
2018-04-12T09:58:22.824Z,45.90
2018-04-12T10:00:56.431Z,44.92
2018-04-12T10:03:23.989Z,45.00
2018-04-12T10:05:57.326Z,43.89
2018-04-12T10:08:28.777Z,43.32
2018-04-12T10:10:56.373Z,43.73
2018-04-12T10:13:24.002Z,43.08
2018-04-12T10:15:51.680Z,43.41
2018-04-12T10:18:19.308Z,42.91
2018-04-12T10:20:46.929Z,43.74
2018-04-12T10:23:14.555Z,43.47
2018-04-12T10:25:42.136Z,44.13
2018-04-12T10:28:09.713Z,43.96
2018-04-12T10:30:37.346Z,42.38
2018-04-12T10:33:05.030Z,43.25
2018-04-12T10:35:32.584Z,41.98
2018-04-12T10:38:00.212Z,41.62
2018-04-12T10:40:27.843Z,40.33
2018-04-12T10:42:55.404Z,38.95
2018-04-12T10:45:23.094Z,38.15
2018-04-12T10:47:50.665Z,36.96
2018-04-12T10:50:18.224Z,37.13
2018-04-12T10:52:45.780Z,36.27
2018-04-12T10:55:13.360Z,34.63
2018-04-12T10:57:41.027Z,32.48
2018-04-12T11:00:08.725Z,32.60
2018-04-12T11:02:36.359Z,33.04
2018-04-12T11:05:03.946Z,33.42
2018-04-12T11:07:31.527Z,33.28
2018-04-12T11:09:59.147Z,33.09
2018-04-12T11:12:26.781Z,32.05
2018-04-12T11:14:54.343Z,33.38
2018-04-12T11:17:21.959Z,32.64
2018-04-12T11:19:49.590Z,32.00
2018-04-12T11:22:17.213Z,32.42
2018-04-12T11:24:44.841Z,32.29
2018-04-12T11:27:12.493Z,33.26
2018-04-12T11:29:40.122Z,33.03
2018-04-12T11:32:07.744Z,31.67
2018-04-12T11:34:35.379Z,31.04
2018-04-12T11:37:02.947Z,29.17
2018-04-12T11:39:30.573Z,29.06
2018-04-12T11:41:58.138Z,28.57
2018-04-12T11:44:25.696Z,27.90
2018-04-12T11:46:53.343Z,27.97
2018-04-12T11:49:21.007Z,27.72
2018-04-12T11:51:48.637Z,26.51
2018-04-12T11:54:16.219Z,26.41
2018-04-12T11:56:43.816Z,26.39
2018-04-12T11:59:11.502Z,26.13
2018-04-12T12:01:39.009Z,25.86
2018-04-12T12:04:06.580Z,24.59
2018-04-12T12:06:34.146Z,24.07
2018-04-12T12:09:01.770Z,23.08
2018-04-12T12:11:29.329Z,22.55
2018-04-12T12:13:56.947Z,22.22
2018-04-12T12:16:24.520Z,22.24
2018-04-12T12:18:52.141Z,22.50
2018-04-12T12:21:19.765Z,22.60
2018-04-12T12:23:47.369Z,22.92
2018-04-12T12:26:14.926Z,21.84
2018-04-12T12:28:42.469Z,20.60
2018-04-12T12:31:10.032Z,20.48
2018-04-12T12:33:37.599Z,20.54
2018-04-12T12:36:05.279Z,19.95
2018-04-12T12:38:32.855Z,20.66
2018-04-12T12:41:00.495Z,19.92
2018-04-12T12:43:28.064Z,21.07
2018-04-12T12:45:55.685Z,21.64
2018-04-12T12:48:23.262Z,21.70
2018-04-12T12:50:50.856Z,22.40
2018-04-12T12:53:18.495Z,22.56
2018-04-12T12:55:46.116Z,22.11
2018-04-12T12:58:13.690Z,23.71
2018-04-12T13:00:41.284Z,24.31
2018-04-12T13:03:08.902Z,26.22
2018-04-12T13:05:36.504Z,27.03
2018-04-12T13:08:04.134Z,29.49
2018-04-12T13:10:31.784Z,30.70
2018-04-12T13:12:59.401Z,31.20
2018-04-12T13:15:26.967Z,31.92
2018-04-12T13:17:54.532Z,32.26
2018-04-12T13:20:22.091Z,32.46
2018-04-12T13:22:49.662Z,33.13
2018-04-12T13:25:17.299Z,32.98
2018-04-12T13:27:44.972Z,35.47
2018-04-12T13:30:12.539Z,34.53
2018-04-12T13:32:40.113Z,35.53
2018-04-12T13:35:07.684Z,33.89
2018-04-12T13:37:35.266Z,34.98
2018-04-12T13:40:02.902Z,35.52
2018-04-12T13:42:30.557Z,35.32
2018-04-12T13:44:58.119Z,35.83
2018-04-12T13:47:25.741Z,37.21
2018-04-12T13:49:53.370Z,38.13
2018-04-12T13:52:23.747Z,38.24
2018-04-12T13:54:51.330Z,37.86
2018-04-12T13:57:18.942Z,35.89
2018-04-12T13:59:46.576Z,36.32
2018-04-12T14:02:14.207Z,36.48
2018-04-12T14:04:41.873Z,35.92
2018-04-12T14:07:09.420Z,36.45
2018-04-12T14:09:37.042Z,35.32
2018-04-12T14:12:04.633Z,34.47
2018-04-12T14:14:32.219Z,35.13
2018-04-12T14:16:59.839Z,35.45
2018-04-12T14:19:27.378Z,36.55
2018-04-12T14:21:54.933Z,36.57
2018-04-12T14:24:22.552Z,36.87
2018-04-12T14:26:50.103Z,36.99
2018-04-12T14:29:17.674Z,36.98
2018-04-12T14:31:45.325Z,36.87
2018-04-12T14:34:12.891Z,37.02
2018-04-12T14:36:40.529Z,37.62
2018-04-12T14:39:08.091Z,36.84
2018-04-12T14:41:35.709Z,36.89
2018-04-12T14:44:03.357Z,36.69
2018-04-12T14:46:30.998Z,36.29
2018-04-12T14:48:58.610Z,36.98
2018-04-12T14:51:26.283Z,37.32
2018-04-12T14:53:53.910Z,37.45
2018-04-12T14:56:21.480Z,37.16
2018-04-12T14:58:49.108Z,37.90
2018-04-12T15:01:16.734Z,37.45
2018-04-12T15:03:44.324Z,37.57
2018-04-12T15:06:11.893Z,38.43
2018-04-12T15:08:39.542Z,38.78
2018-04-12T15:11:07.114Z,38.55
2018-04-12T15:13:34.752Z,38.65
2018-04-12T15:16:02.379Z,39.05
2018-04-12T15:18:30.019Z,37.46
2018-04-12T15:20:57.592Z,37.86
2018-04-12T15:23:25.146Z,37.40
2018-04-12T15:25:52.781Z,38.08
2018-04-12T15:28:20.382Z,36.95
2018-04-12T15:30:48.018Z,37.55
2018-04-12T15:33:15.581Z,37.87
2018-04-12T15:35:43.195Z,37.64
2018-04-12T15:38:10.830Z,37.18
2018-04-12T15:40:38.384Z,36.56
2018-04-12T15:43:06.023Z,36.72
2018-04-12T15:45:33.594Z,35.95
2018-04-12T15:48:01.168Z,36.14
2018-04-12T15:50:28.742Z,37.08
2018-04-12T15:52:56.316Z,38.15
2018-04-12T15:55:23.942Z,38.90
2018-04-12T15:57:51.556Z,39.43
2018-04-12T16:00:19.146Z,39.51
2018-04-12T16:02:46.772Z,40.14
2018-04-12T16:05:14.346Z,39.77
2018-04-12T16:07:41.973Z,40.90
2018-04-12T16:10:09.553Z,40.41
2018-04-12T16:12:37.185Z,40.45
2018-04-12T16:15:04.761Z,41.60
2018-04-12T16:17:32.339Z,41.23
2018-04-12T16:19:59.991Z,41.97
2018-04-12T16:22:27.630Z,41.83
2018-04-12T16:24:55.232Z,42.25
2018-04-12T16:27:22.866Z,43.23
2018-04-12T16:29:50.432Z,42.95
2018-04-12T16:32:18.084Z,43.07
2018-04-12T16:34:45.730Z,43.73
2018-04-12T16:37:13.300Z,44.22
2018-04-12T16:39:40.870Z,44.26
2018-04-12T16:42:08.550Z,43.92
2018-04-12T16:44:36.178Z,44.56
2018-04-12T16:47:03.740Z,44.79
2018-04-12T16:49:31.356Z,44.50
2018-04-12T16:51:58.950Z,45.17
2018-04-12T16:54:26.524Z,45.45
2018-04-12T16:56:54.086Z,45.76
2018-04-12T16:59:21.700Z,46.15
2018-04-12T17:01:49.345Z,46.65
2018-04-12T17:04:16.968Z,46.85
2018-04-12T17:06:44.588Z,47.38
2018-04-12T17:09:12.163Z,48.21
2018-04-12T17:11:39.773Z,49.26
2018-04-12T17:14:07.361Z,49.78
2018-04-12T17:16:34.963Z,50.98
2018-04-12T17:19:02.531Z,51.74
2018-04-12T17:21:30.211Z,52.12
2018-04-12T17:23:57.788Z,53.70
2018-04-12T17:26:25.421Z,54.29
2018-04-12T17:28:53.094Z,55.27
2018-04-12T17:31:20.726Z,54.78
2018-04-12T17:33:48.357Z,54.43
2018-04-12T17:36:15.990Z,54.65
2018-04-12T17:38:43.617Z,54.14
2018-04-12T17:41:11.181Z,54.48
2018-04-12T17:43:38.801Z,54.10
2018-04-12T17:46:06.420Z,54.50
2018-04-12T17:48:34.045Z,55.03
2018-04-12T17:51:01.682Z,55.12
2018-04-12T17:53:29.249Z,55.56
2018-04-12T17:55:56.816Z,55.64
2018-04-12T17:58:24.384Z,55.66
2018-04-12T18:00:51.955Z,56.44
2018-04-12T18:03:19.525Z,56.99
2018-04-12T18:05:47.156Z,57.46
2018-04-12T18:08:14.876Z,58.11
2018-04-12T18:10:42.481Z,58.21
2018-04-12T18:13:10.104Z,58.60
2018-04-12T18:15:37.725Z,58.98
2018-04-12T18:18:05.360Z,58.83
2018-04-12T18:20:33.001Z,59.33
2018-04-12T18:23:00.647Z,59.34
2018-04-12T18:25:28.214Z,59.76
2018-04-12T18:27:55.890Z,59.78
2018-04-12T18:30:23.464Z,59.72
2018-04-12T18:32:51.037Z,59.81
2018-04-12T18:35:18.629Z,60.11
2018-04-12T18:37:46.169Z,60.21
2018-04-12T18:40:13.755Z,60.60
2018-04-12T18:42:41.321Z,61.04
2018-04-12T18:45:09.028Z,61.28
2018-04-12T18:47:36.597Z,61.71
2018-04-12T18:50:04.164Z,62.28
2018-04-12T18:52:31.813Z,62.52
2018-04-12T18:54:59.377Z,62.42
2018-04-12T18:57:26.955Z,63.11
2018-04-12T18:59:54.516Z,63.03
2018-04-12T19:02:22.189Z,63.24
2018-04-12T19:04:49.760Z,63.10
2018-04-12T19:07:17.397Z,63.54
2018-04-12T19:09:44.979Z,63.65
2018-04-12T19:12:12.605Z,63.99
2018-04-12T19:14:40.186Z,63.58
2018-04-12T19:17:07.733Z,63.29
2018-04-12T19:19:35.368Z,64.06
2018-04-12T19:22:02.939Z,63.77
2018-04-12T19:24:30.548Z,63.80
2018-04-12T19:26:58.206Z,64.36
2018-04-12T19:29:25.843Z,63.99
2018-04-12T19:31:53.421Z,63.94
2018-04-12T19:34:20.993Z,63.84
2018-04-12T19:36:48.572Z,64.19
2018-04-12T19:39:16.218Z,64.77
2018-04-12T19:41:43.801Z,65.02
2018-04-12T19:44:11.371Z,65.33
2018-04-12T19:46:38.993Z,65.87
2018-04-12T19:49:06.562Z,66.29
2018-04-12T19:51:34.194Z,66.17
2018-04-12T19:54:01.773Z,66.03
2018-04-12T19:56:29.407Z,65.75
2018-04-12T19:58:56.986Z,65.57
2018-04-12T20:01:24.570Z,65.67
2018-04-12T20:03:52.196Z,65.61
2018-04-12T20:06:19.741Z,65.86
2018-04-12T20:08:47.361Z,65.53
2018-04-12T20:11:14.929Z,64.86
2018-04-12T20:13:42.557Z,64.88
2018-04-12T20:16:10.211Z,64.52
2018-04-12T20:18:37.777Z,64.59
2018-04-12T20:21:05.406Z,64.64
2018-04-12T20:23:32.979Z,64.44
2018-04-12T20:26:00.616Z,64.36
2018-04-12T20:28:28.190Z,64.35
2018-04-12T20:30:55.872Z,64.43
2018-04-12T20:33:23.440Z,65.12
2018-04-12T20:35:51.008Z,65.33
2018-04-12T20:38:18.574Z,65.32
2018-04-12T20:40:46.137Z,65.28
2018-04-12T20:43:13.715Z,65.49
2018-04-12T20:45:41.290Z,65.79
2018-04-12T20:48:08.941Z,65.71
2018-04-12T20:50:36.518Z,66.34
2018-04-12T20:53:04.082Z,66.42
2018-04-12T20:55:31.665Z,67.03
2018-04-12T20:57:59.235Z,66.67
2018-04-12T21:00:26.808Z,67.01
2018-04-12T21:02:54.385Z,66.57
2018-04-12T21:05:22.020Z,66.45
2018-04-12T21:07:49.584Z,65.97
2018-04-12T21:10:17.153Z,65.33
2018-04-12T21:12:44.720Z,66.24
2018-04-12T21:15:12.280Z,67.19
2018-04-12T21:17:39.953Z,67.42
2018-04-12T21:20:07.512Z,67.23
2018-04-12T21:22:35.068Z,67.62
2018-04-12T21:25:02.641Z,68.23
2018-04-12T21:27:30.274Z,68.31
2018-04-12T21:29:57.848Z,68.39
2018-04-12T21:32:25.417Z,68.71
2018-04-12T21:34:53.115Z,68.78
2018-04-12T21:37:20.697Z,69.13
2018-04-12T21:39:48.266Z,70.06
2018-04-12T21:42:15.844Z,69.91
2018-04-12T21:44:43.404Z,70.16
2018-04-12T21:47:10.975Z,71.13
2018-04-12T21:49:38.539Z,71.01
2018-04-12T21:52:06.213Z,71.29
2018-04-12T21:54:33.772Z,71.40
2018-04-12T21:57:01.333Z,71.63
2018-04-12T21:59:28.969Z,71.80
2018-04-12T22:01:56.567Z,72.36
2018-04-12T22:06:51.107Z,72.71
2018-04-12T22:09:18.876Z,73.63
2018-04-12T22:11:46.460Z,73.45
2018-04-12T22:14:14.076Z,73.60
2018-04-12T22:16:41.729Z,73.92
2018-04-12T22:19:09.348Z,73.47
2018-04-12T22:21:36.975Z,73.71
2018-04-12T22:24:04.648Z,73.76
2018-04-12T22:26:32.313Z,73.77
2018-04-12T22:28:59.948Z,73.81
2018-04-12T22:31:27.547Z,72.94
2018-04-12T22:33:55.209Z,72.28
2018-04-12T22:36:22.878Z,71.42
2018-04-12T22:38:50.561Z,71.41
2018-04-12T22:41:18.152Z,70.46
2018-04-12T22:43:45.816Z,70.02
2018-04-12T22:46:13.483Z,69.77
2018-04-12T22:48:41.070Z,69.18
2018-04-12T22:51:08.672Z,68.77
2018-04-12T22:53:36.274Z,68.74
2018-04-12T22:56:03.885Z,68.91
2018-04-12T22:58:31.501Z,69.32
2018-04-12T23:00:59.217Z,69.15
2018-04-12T23:03:26.828Z,68.89
2018-04-12T23:05:54.428Z,69.44
2018-04-12T23:08:22.034Z,69.18
2018-04-12T23:10:49.644Z,70.21
2018-04-12T23:13:17.274Z,70.10
2018-04-12T23:15:44.942Z,70.28
2018-04-12T23:18:12.598Z,70.75
2018-04-12T23:20:40.256Z,71.36
2018-04-12T23:23:07.879Z,71.68
2018-04-12T23:25:35.481Z,71.64
2018-04-12T23:28:03.103Z,71.89
2018-04-12T23:30:30.773Z,72.54
2018-04-12T23:32:58.354Z,72.99
2018-04-12T23:35:26.033Z,73.26
2018-04-12T23:37:53.644Z,73.82
2018-04-12T23:40:21.241Z,74.24
2018-04-12T23:42:48.852Z,74.38
2018-04-12T23:45:16.527Z,74.72
2018-04-12T23:47:44.136Z,74.66
2018-04-12T23:50:11.732Z,74.84
2018-04-12T23:52:39.396Z,75.07
2018-04-12T23:55:07.012Z,75.28
2018-04-12T23:57:34.624Z,75.32
